• Join FlightAware (Why Join?)
  • Login
  • US Flag 
01:19AM EST


 

Airport Tracker/Info


-or-


 

Live Flight TrackerFlight Track Log ✈ EJA831 ✈ 13-Jul-2013 ✈ KPWK - KDSM

Flight Track Log - Related Links

Times and Time Zones

All times are in EDT time to prevent confusion due to time zone crossing. See the EJA831 flight status page for this flight to view local times or setup timezone preferences in your user account.

Time Position Orientation Groundspeed Altitude Reporting Facility
EDT Latitude Longitude Course Direction KTS MPH feet Rate Location/Type
08:00AM 42.1886 -87.9511 241° Southwest 221 254 3,900  Level Chicago Center
08:01AM 42.1911 -88.0469 272° West 271 312 6,600 3,000 Climbing Chicago Center
08:02AM 42.1814 -88.1517 263° West 281 323 10,100 3,420 Climbing Chicago Center
08:03AM 42.1389 -88.2769 245° Southwest 309 356 13,600 2,700 Climbing Chicago Center
08:05AM 42.0950 -88.3911 243° Southwest 341 392 15,700 1,980 Climbing Chicago Center
08:06AM 41.9131 -88.4154 241° Southwest  Level FlightAware Approximate
08:06AM 42.0478 -88.5089 242° Southwest 357 411 17,700  Level Chicago Center
08:07AM 42.0025 -88.6333 244° Southwest 369 425 19,300 1,560 Climbing Chicago Center
08:08AM 41.9528 -88.7625 243° Southwest 390 449 20,900 1,560 Climbing Chicago Center
08:09AM 41.9206 -88.9036 253° West 399 459 22,500 1,560 Climbing Chicago Center
08:10AM 41.9114 -89.0497 265° West 399 459 24,100 1,500 Climbing Chicago Center
08:11AM 41.9014 -89.2256 266° West 399 459 25,600 900 Climbing Chicago Center
08:12AM 41.8917 -89.3803 265° West 416 479 26,000 180 Climbing Chicago Center
08:13AM 41.8811 -89.5419 265° West 434 499 26,000  Level Chicago Center
08:14AM 41.8700 -89.7036 265° West 438 504 26,000  Level Chicago Center
08:15AM 41.8597 -89.8647 265° West 438 504 26,000  Level Chicago Center
08:16AM 41.8478 -90.0461 265° West 436 502 26,000  Level Chicago Center
08:17AM 41.8378 -90.2047 265° West 433 498 26,000  Level Chicago Center
08:18AM 41.8261 -90.3633 264° West 432 497 26,000  Level Chicago Center
08:19AM 41.8133 -90.5236 264° West 434 499 26,000  Level Chicago Center
08:20AM 41.8003 -90.6833 264° West 434 499 26,000  Level Chicago Center
08:21AM 41.7878 -90.8450 264° West 436 502 26,000  Level Chicago Center
08:22AM 41.7753 -91.0031 264° West 434 499 26,000  Level Chicago Center
08:23AM 41.7603 -91.1925 264° West 431 496 26,000  Level Chicago Center
08:24AM 41.7467 -91.3472 263° West 422 486 26,000 -120 Level Chicago Center
08:25AM 41.7339 -91.5042 264° West 424 488 25,800 -840 Descending Chicago Center
08:26AM 41.7211 -91.6619 264° West 429 494 24,400 -1,260 Descending Chicago Center
08:27AM 41.7086 -91.8144 264° West 417 480 23,300 -720 Descending Chicago Center
08:28AM 41.6956 -91.9597 263° West 401 461 23,000 -180 Descending Chicago Center
08:29AM 41.6836 -92.1064 264° West 398 458 23,000 -600 Level Chicago Center
08:30AM 41.6669 -92.2817 263° West 398 458 21,800 -1,380 Descending Chicago Center
08:31AM 41.6539 -92.4289 263° West 401 461 20,200 -1,620 Descending Chicago Center
08:32AM 41.6406 -92.5694 263° West 388 447 18,600 -1,500 Descending Chicago Center
08:33AM 41.6314 -92.6750 263° West 385 443 17,500 -1,320 Descending Minneapolis Center
08:34AM 41.6178 -92.8086 262° West 375 432 15,900 -1,740 Descending Minneapolis Center
08:35AM 41.6064 -92.9886 265° West 356 410 13,700 -1,920 Descending Minneapolis Center
08:36AM 41.6067 -93.1144 270° West 346 398 12,100 -1,620 Descending Minneapolis Center
08:37AM 41.6078 -93.2394 271° West 343 395 10,500 -1,920 Descending Minneapolis Center
08:38AM 41.6158 -93.3061 279° West 300 345 8,900 -2,220 Descending Minneapolis Center
08:39AM 41.6192 -93.4058 273° West 272 313 6,800 -2,040 Descending Minneapolis Center
08:40AM 41.6239 -93.4892 274° West 248 285 5,000 -1,860 Descending Minneapolis Center
08:40AM 41.6211 -93.5367 266° West 236 272 4,200 -1,380 Descending Minneapolis Center
08:41AM 41.6303 -93.5692 291° West 227 261 3,600 -1,020 Descending Minneapolis Center
08:41AM 41.6269 -93.6119 264° West 204 235 3,200 -840 Descending Minneapolis Center
08:42AM 41.6294 -93.6333 279° West 169 194 2,800 -840 Descending Minneapolis Center
08:42AM 41.6092 -93.6622 227° Southwest 142 163 2,400 -720 Descending Minneapolis Center
08:43AM 41.6019 -93.6667 205° Southwest 133 153 2,100 -600 Descending Minneapolis Center
08:43AM 41.5814 -93.6881 218° Southwest 125 144 1,800 -600 Descending Minneapolis Center
08:44AM 41.5531 -93.6850 175° South 118 136 1,200 -540 Descending Minneapolis Center
08:45AM 41.5367 -93.6622 134° Southeast 106 122 800 -420 Descending Minneapolis Center
08:47AM 41.5333 -93.6500 143° Southeast  Level FlightAware Approximate